sensor_id;sensor_type;location;lat;lon;timestamp;P1;durP1;ratioP1;P2;durP2;ratioP2
16189;SDS011;41754;51.498;7.540;2023-07-29T00:00:27;3.60;;;3.15;;
16189;SDS011;41754;51.498;7.540;2023-07-29T00:02:55;3.33;;;3.03;;
16189;SDS011;41754;51.498;7.540;2023-07-29T00:05:23;3.40;;;3.10;;
16189;SDS011;41754;51.498;7.540;2023-07-29T00:07:51;3.50;;;3.30;;
16189;SDS011;41754;51.498;7.540;2023-07-29T00:10:19;3.75;;;3.33;;
16189;SDS011;41754;51.498;7.540;2023-07-29T00:12:48;3.78;;;3.47;;
16189;SDS011;41754;51.498;7.540;2023-07-29T00:15:16;3.67;;;3.47;;
16189;SDS011;41754;51.498;7.540;2023-07-29T00:17:44;4.32;;;3.92;;
16189;SDS011;41754;51.498;7.540;2023-07-29T00:20:12;4.60;;;4.22;;
16189;SDS011;41754;51.498;7.540;2023-07-29T00:22:40;4.40;;;4.00;;
16189;SDS011;41754;51.498;7.540;2023-07-29T00:25:08;4.15;;;3.75;;
16189;SDS011;41754;51.498;7.540;2023-07-29T00:27:36;4.35;;;3.95;;
16189;SDS011;41754;51.498;7.540;2023-07-29T00:30:06;4.13;;;3.83;;
16189;SDS011;41754;51.498;7.540;2023-07-29T00:32:36;4.13;;;3.83;;
16189;SDS011;41754;51.498;7.540;2023-07-29T00:35:05;4.50;;;4.10;;
16189;SDS011;41754;51.498;7.540;2023-07-29T00:37:33;4.57;;;4.25;;
16189;SDS011;41754;51.498;7.540;2023-07-29T00:40:01;4.20;;;3.90;;
16189;SDS011;41754;51.498;7.540;2023-07-29T00:42:30;4.88;;;4.47;;
16189;SDS011;41754;51.498;7.540;2023-07-29T00:44:57;4.50;;;3.95;;
16189;SDS011;41754;51.498;7.540;2023-07-29T00:47:27;5.07;;;4.57;;
16189;SDS011;41754;51.498;7.540;2023-07-29T00:49:55;4.82;;;4.43;;
16189;SDS011;41754;51.498;7.540;2023-07-29T00:52:22;5.45;;;4.97;;
16189;SDS011;41754;51.498;7.540;2023-07-29T00:54:53;5.03;;;4.60;;
16189;SDS011;41754;51.498;7.540;2023-07-29T00:57:21;5.25;;;4.85;;
16189;SDS011;41754;51.498;7.540;2023-07-29T00:59:49;6.20;;;5.60;;
16189;SDS011;41754;51.498;7.540;2023-07-29T01:02:17;4.90;;;4.53;;
16189;SDS011;41754;51.498;7.540;2023-07-29T01:04:46;5.47;;;5.00;;
16189;SDS011;41754;51.498;7.540;2023-07-29T01:07:21;5.25;;;4.85;;
16189;SDS011;41754;51.498;7.540;2023-07-29T01:09:54;5.35;;;4.95;;
16189;SDS011;41754;51.498;7.540;2023-07-29T01:12:29;5.43;;;4.93;;
16189;SDS011;41754;51.498;7.540;2023-07-29T01:15:08;4.97;;;4.45;;
16189;SDS011;41754;51.498;7.540;2023-07-29T01:17:46;6.00;;;5.40;;
16189;SDS011;41754;51.498;7.540;2023-07-29T01:20:18;5.93;;;5.43;;
16189;SDS011;41754;51.498;7.540;2023-07-29T01:22:47;5.80;;;5.20;;
16189;SDS011;41754;51.498;7.540;2023-07-29T01:25:17;5.95;;;5.45;;
16189;SDS011;41754;51.498;7.540;2023-07-29T01:27:45;7.63;;;5.45;;
16189;SDS011;41754;51.498;7.540;2023-07-29T01:30:14;5.68;;;5.20;;
16189;SDS011;41754;51.498;7.540;2023-07-29T01:32:45;5.85;;;5.35;;
16189;SDS011;41754;51.498;7.540;2023-07-29T01:35:22;5.57;;;5.22;;
16189;SDS011;41754;51.498;7.540;2023-07-29T01:37:55;5.68;;;5.28;;
16189;SDS011;41754;51.498;7.540;2023-07-29T01:40:28;5.55;;;5.20;;
16189;SDS011;41754;51.498;7.540;2023-07-29T01:42:56;6.47;;;5.00;;
16189;SDS011;41754;51.498;7.540;2023-07-29T01:45:24;5.85;;;5.35;;
16189;SDS011;41754;51.498;7.540;2023-07-29T01:47:52;5.50;;;5.10;;
16189;SDS011;41754;51.498;7.540;2023-07-29T01:50:20;5.85;;;5.38;;
16189;SDS011;41754;51.498;7.540;2023-07-29T01:52:48;5.47;;;5.07;;
16189;SDS011;41754;51.498;7.540;2023-07-29T01:55:16;4.88;;;4.47;;
16189;SDS011;41754;51.498;7.540;2023-07-29T01:57:45;5.63;;;5.20;;
16189;SDS011;41754;51.498;7.540;2023-07-29T02:00:14;4.97;;;4.40;;
16189;SDS011;41754;51.498;7.540;2023-07-29T02:02:44;5.32;;;4.75;;
16189;SDS011;41754;51.498;7.540;2023-07-29T02:05:12;5.55;;;5.03;;
16189;SDS011;41754;51.498;7.540;2023-07-29T02:07:40;5.95;;;5.35;;
16189;SDS011;41754;51.498;7.540;2023-07-29T02:10:08;5.22;;;4.82;;
16189;SDS011;41754;51.498;7.540;2023-07-29T02:12:36;5.20;;;4.78;;
16189;SDS011;41754;51.498;7.540;2023-07-29T02:15:06;5.15;;;4.70;;
16189;SDS011;41754;51.498;7.540;2023-07-29T02:17:35;4.57;;;4.22;;
16189;SDS011;41754;51.498;7.540;2023-07-29T02:20:04;5.25;;;4.75;;
16189;SDS011;41754;51.498;7.540;2023-07-29T02:22:33;4.93;;;4.43;;
16189;SDS011;41754;51.498;7.540;2023-07-29T02:25:00;6.55;;;5.13;;
16189;SDS011;41754;51.498;7.540;2023-07-29T02:27:28;5.07;;;4.68;;
16189;SDS011;41754;51.498;7.540;2023-07-29T02:29:56;7.30;;;4.80;;
16189;SDS011;41754;51.498;7.540;2023-07-29T02:32:26;5.13;;;4.63;;
16189;SDS011;41754;51.498;7.540;2023-07-29T02:34:54;5.43;;;4.97;;
16189;SDS011;41754;51.498;7.540;2023-07-29T02:37:22;4.40;;;4.00;;
16189;SDS011;41754;51.498;7.540;2023-07-29T02:39:49;4.30;;;4.00;;
16189;SDS011;41754;51.498;7.540;2023-07-29T02:42:17;4.78;;;4.18;;
16189;SDS011;41754;51.498;7.540;2023-07-29T02:44:45;4.10;;;3.80;;
16189;SDS011;41754;51.498;7.540;2023-07-29T02:47:13;4.35;;;3.95;;
16189;SDS011;41754;51.498;7.540;2023-07-29T02:49:42;4.35;;;4.00;;
16189;SDS011;41754;51.498;7.540;2023-07-29T02:52:10;7.47;;;4.53;;
16189;SDS011;41754;51.498;7.540;2023-07-29T02:54:38;5.05;;;4.55;;
16189;SDS011;41754;51.498;7.540;2023-07-29T02:57:06;4.68;;;4.38;;
16189;SDS011;41754;51.498;7.540;2023-07-29T02:59:34;5.47;;;4.93;;
16189;SDS011;41754;51.498;7.540;2023-07-29T03:02:01;4.43;;;4.13;;
16189;SDS011;41754;51.498;7.540;2023-07-29T03:04:29;4.65;;;4.22;;
16189;SDS011;41754;51.498;7.540;2023-07-29T03:07:01;5.70;;;4.78;;
16189;SDS011;41754;51.498;7.540;2023-07-29T03:09:29;5.65;;;5.05;;
16189;SDS011;41754;51.498;7.540;2023-07-29T03:11:57;6.28;;;4.88;;
16189;SDS011;41754;51.498;7.540;2023-07-29T03:14:25;6.25;;;4.60;;
16189;SDS011;41754;51.498;7.540;2023-07-29T03:16:54;5.32;;;4.30;;
16189;SDS011;41754;51.498;7.540;2023-07-29T03:19:22;4.20;;;3.90;;
16189;SDS011;41754;51.498;7.540;2023-07-29T03:21:50;4.30;;;3.90;;
16189;SDS011;41754;51.498;7.540;2023-07-29T03:24:19;4.00;;;3.80;;
16189;SDS011;41754;51.498;7.540;2023-07-29T03:26:46;4.30;;;3.90;;
16189;SDS011;41754;51.498;7.540;2023-07-29T03:29:14;4.50;;;4.10;;
16189;SDS011;41754;51.498;7.540;2023-07-29T03:31:42;5.28;;;4.63;;
16189;SDS011;41754;51.498;7.540;2023-07-29T03:34:10;5.90;;;4.78;;
16189;SDS011;41754;51.498;7.540;2023-07-29T03:36:41;5.35;;;4.85;;
16189;SDS011;41754;51.498;7.540;2023-07-29T03:39:09;5.10;;;4.50;;
16189;SDS011;41754;51.498;7.540;2023-07-29T03:41:38;4.80;;;4.40;;
16189;SDS011;41754;51.498;7.540;2023-07-29T03:44:06;5.05;;;4.18;;
16189;SDS011;41754;51.498;7.540;2023-07-29T03:46:34;5.20;;;4.75;;
16189;SDS011;41754;51.498;7.540;2023-07-29T03:49:04;5.07;;;4.57;;
16189;SDS011;41754;51.498;7.540;2023-07-29T03:51:32;5.28;;;4.82;;
16189;SDS011;41754;51.498;7.540;2023-07-29T03:54:01;4.72;;;4.35;;
16189;SDS011;41754;51.498;7.540;2023-07-29T03:56:28;5.38;;;4.90;;
16189;SDS011;41754;51.498;7.540;2023-07-29T03:59:02;5.65;;;5.15;;
16189;SDS011;41754;51.498;7.540;2023-07-29T04:01:31;4.97;;;4.57;;
16189;SDS011;41754;51.498;7.540;2023-07-29T04:03:59;5.32;;;4.82;;
16189;SDS011;41754;51.498;7.540;2023-07-29T04:06:27;5.95;;;5.45;;
16189;SDS011;41754;51.498;7.540;2023-07-29T04:08:55;6.10;;;5.60;;
16189;SDS011;41754;51.498;7.540;2023-07-29T04:11:24;5.32;;;5.03;;
16189;SDS011;41754;51.498;7.540;2023-07-29T04:13:52;5.60;;;5.10;;
16189;SDS011;41754;51.498;7.540;2023-07-29T04:16:21;5.30;;;4.80;;
16189;SDS011;41754;51.498;7.540;2023-07-29T04:18:49;4.97;;;4.65;;
16189;SDS011;41754;51.498;7.540;2023-07-29T04:21:17;6.00;;;4.57;;
16189;SDS011;41754;51.498;7.540;2023-07-29T04:23:45;6.25;;;4.70;;
16189;SDS011;41754;51.498;7.540;2023-07-29T04:26:13;5.25;;;4.85;;
16189;SDS011;41754;51.498;7.540;2023-07-29T04:28:41;5.70;;;5.20;;
16189;SDS011;41754;51.498;7.540;2023-07-29T04:31:09;6.20;;;5.60;;
16189;SDS011;41754;51.498;7.540;2023-07-29T04:33:38;5.55;;;5.15;;
16189;SDS011;41754;51.498;7.540;2023-07-29T04:36:06;5.22;;;4.72;;
16189;SDS011;41754;51.498;7.540;2023-07-29T04:38:34;5.15;;;4.72;;
16189;SDS011;41754;51.498;7.540;2023-07-29T04:41:02;5.25;;;4.85;;
16189;SDS011;41754;51.498;7.540;2023-07-29T04:43:30;5.40;;;5.00;;
16189;SDS011;41754;51.498;7.540;2023-07-29T04:45:59;5.30;;;4.75;;
16189;SDS011;41754;51.498;7.540;2023-07-29T04:48:27;5.70;;;5.10;;
16189;SDS011;41754;51.498;7.540;2023-07-29T04:50:56;5.15;;;4.85;;
16189;SDS011;41754;51.498;7.540;2023-07-29T04:53:24;5.32;;;4.93;;
16189;SDS011;41754;51.498;7.540;2023-07-29T04:55:52;5.72;;;5.22;;
16189;SDS011;41754;51.498;7.540;2023-07-29T04:58:20;6.22;;;5.15;;
16189;SDS011;41754;51.498;7.540;2023-07-29T05:00:48;6.07;;;5.57;;
16189;SDS011;41754;51.498;7.540;2023-07-29T05:03:17;6.43;;;5.80;;
16189;SDS011;41754;51.498;7.540;2023-07-29T05:05:45;5.88;;;5.38;;
16189;SDS011;41754;51.498;7.540;2023-07-29T05:08:14;6.40;;;5.13;;
16189;SDS011;41754;51.498;7.540;2023-07-29T05:10:42;6.20;;;5.80;;
16189;SDS011;41754;51.498;7.540;2023-07-29T05:13:10;6.53;;;6.03;;
16189;SDS011;41754;51.498;7.540;2023-07-29T05:15:37;6.38;;;5.82;;
16189;SDS011;41754;51.498;7.540;2023-07-29T05:18:05;6.38;;;5.88;;
16189;SDS011;41754;51.498;7.540;2023-07-29T05:20:33;6.80;;;6.13;;
16189;SDS011;41754;51.498;7.540;2023-07-29T05:23:01;7.75;;;7.15;;
16189;SDS011;41754;51.498;7.540;2023-07-29T05:25:30;7.45;;;6.95;;
16189;SDS011;41754;51.498;7.540;2023-07-29T05:27:58;8.25;;;7.45;;
16189;SDS011;41754;51.498;7.540;2023-07-29T05:30:26;7.97;;;7.38;;
16189;SDS011;41754;51.498;7.540;2023-07-29T05:32:57;9.05;;;8.27;;
16189;SDS011;41754;51.498;7.540;2023-07-29T05:35:25;8.65;;;7.90;;
16189;SDS011;41754;51.498;7.540;2023-07-29T05:37:53;8.30;;;7.70;;
16189;SDS011;41754;51.498;7.540;2023-07-29T05:40:21;8.95;;;8.13;;
16189;SDS011;41754;51.498;7.540;2023-07-29T05:42:51;9.15;;;8.40;;
16189;SDS011;41754;51.498;7.540;2023-07-29T05:45:18;9.38;;;8.50;;
16189;SDS011;41754;51.498;7.540;2023-07-29T05:47:46;9.77;;;8.80;;
16189;SDS011;41754;51.498;7.540;2023-07-29T05:50:14;22.13;;;17.70;;
16189;SDS011;41754;51.498;7.540;2023-07-29T05:52:42;10.30;;;9.40;;
16189;SDS011;41754;51.498;7.540;2023-07-29T05:55:10;12.18;;;11.00;;
16189;SDS011;41754;51.498;7.540;2023-07-29T05:57:38;12.07;;;11.10;;
16189;SDS011;41754;51.498;7.540;2023-07-29T06:00:11;12.98;;;11.88;;
16189;SDS011;41754;51.498;7.540;2023-07-29T06:02:39;12.80;;;11.70;;
16189;SDS011;41754;51.498;7.540;2023-07-29T06:05:12;13.32;;;12.13;;
16189;SDS011;41754;51.498;7.540;2023-07-29T06:07:41;13.35;;;12.02;;
16189;SDS011;41754;51.498;7.540;2023-07-29T06:10:12;13.52;;;12.25;;
16189;SDS011;41754;51.498;7.540;2023-07-29T06:12:40;12.60;;;11.50;;
16189;SDS011;41754;51.498;7.540;2023-07-29T06:15:08;14.50;;;12.88;;
16189;SDS011;41754;51.498;7.540;2023-07-29T06:17:38;12.85;;;11.75;;
16189;SDS011;41754;51.498;7.540;2023-07-29T06:20:07;12.85;;;11.73;;
16189;SDS011;41754;51.498;7.540;2023-07-29T06:22:36;13.63;;;11.23;;
16189;SDS011;41754;51.498;7.540;2023-07-29T06:25:04;13.25;;;11.95;;
16189;SDS011;41754;51.498;7.540;2023-07-29T06:27:32;12.98;;;11.82;;
16189;SDS011;41754;51.498;7.540;2023-07-29T06:30:00;13.52;;;12.30;;
16189;SDS011;41754;51.498;7.540;2023-07-29T06:32:29;13.63;;;12.43;;
16189;SDS011;41754;51.498;7.540;2023-07-29T06:34:57;14.80;;;13.32;;
16189;SDS011;41754;51.498;7.540;2023-07-29T06:37:25;13.45;;;12.15;;
16189;SDS011;41754;51.498;7.540;2023-07-29T06:39:53;13.40;;;11.98;;
16189;SDS011;41754;51.498;7.540;2023-07-29T06:42:21;13.02;;;11.93;;
16189;SDS011;41754;51.498;7.540;2023-07-29T06:44:48;13.55;;;12.25;;
16189;SDS011;41754;51.498;7.540;2023-07-29T06:47:16;14.10;;;12.80;;
16189;SDS011;41754;51.498;7.540;2023-07-29T06:49:46;13.43;;;11.98;;
16189;SDS011;41754;51.498;7.540;2023-07-29T06:52:14;11.93;;;10.82;;
16189;SDS011;41754;51.498;7.540;2023-07-29T06:54:42;11.07;;;10.18;;
16189;SDS011;41754;51.498;7.540;2023-07-29T06:57:09;8.30;;;7.50;;
16189;SDS011;41754;51.498;7.540;2023-07-29T06:59:38;6.60;;;6.00;;
16189;SDS011;41754;51.498;7.540;2023-07-29T07:02:06;6.53;;;5.55;;
16189;SDS011;41754;51.498;7.540;2023-07-29T07:04:34;7.28;;;5.07;;
16189;SDS011;41754;51.498;7.540;2023-07-29T07:07:03;5.15;;;4.72;;
16189;SDS011;41754;51.498;7.540;2023-07-29T07:09:32;4.25;;;3.83;;
16189;SDS011;41754;51.498;7.540;2023-07-29T07:11:59;7.30;;;4.03;;
16189;SDS011;41754;51.498;7.540;2023-07-29T07:14:27;3.70;;;3.38;;
16189;SDS011;41754;51.498;7.540;2023-07-29T07:16:55;10.45;;;9.20;;
16189;SDS011;41754;51.498;7.540;2023-07-29T07:19:23;5.80;;;3.35;;
16189;SDS011;41754;51.498;7.540;2023-07-29T07:21:51;4.32;;;3.03;;
16189;SDS011;41754;51.498;7.540;2023-07-29T07:24:20;3.65;;;3.28;;
16189;SDS011;41754;51.498;7.540;2023-07-29T07:26:48;3.30;;;3.00;;
16189;SDS011;41754;51.498;7.540;2023-07-29T07:29:16;2.58;;;2.20;;
16189;SDS011;41754;51.498;7.540;2023-07-29T07:31:48;3.35;;;2.90;;
16189;SDS011;41754;51.498;7.540;2023-07-29T07:34:17;2.83;;;2.30;;
16189;SDS011;41754;51.498;7.540;2023-07-29T07:36:45;2.75;;;2.28;;
16189;SDS011;41754;51.498;7.540;2023-07-29T07:39:13;3.42;;;2.55;;
16189;SDS011;41754;51.498;7.540;2023-07-29T07:41:43;4.35;;;2.60;;
16189;SDS011;41754;51.498;7.540;2023-07-29T07:44:10;2.45;;;2.15;;
16189;SDS011;41754;51.498;7.540;2023-07-29T07:46:41;2.97;;;2.40;;
16189;SDS011;41754;51.498;7.540;2023-07-29T07:49:09;2.25;;;2.00;;
16189;SDS011;41754;51.498;7.540;2023-07-29T07:51:37;3.60;;;1.83;;
16189;SDS011;41754;51.498;7.540;2023-07-29T07:54:04;3.28;;;2.20;;
16189;SDS011;41754;51.498;7.540;2023-07-29T07:56:32;3.05;;;2.40;;
16189;SDS011;41754;51.498;7.540;2023-07-29T07:59:02;2.80;;;1.90;;
16189;SDS011;41754;51.498;7.540;2023-07-29T08:01:33;2.40;;;2.17;;
16189;SDS011;41754;51.498;7.540;2023-07-29T08:04:01;4.38;;;2.03;;
16189;SDS011;41754;51.498;7.540;2023-07-29T08:06:29;2.80;;;2.17;;
16189;SDS011;41754;51.498;7.540;2023-07-29T08:08:58;2.20;;;1.55;;
16189;SDS011;41754;51.498;7.540;2023-07-29T08:11:25;3.28;;;1.85;;
16189;SDS011;41754;51.498;7.540;2023-07-29T08:13:53;1.70;;;1.55;;
16189;SDS011;41754;51.498;7.540;2023-07-29T08:16:22;1.67;;;1.58;;
16189;SDS011;41754;51.498;7.540;2023-07-29T08:18:50;1.67;;;1.58;;
16189;SDS011;41754;51.498;7.540;2023-07-29T08:21:18;1.70;;;1.45;;
16189;SDS011;41754;51.498;7.540;2023-07-29T08:23:46;1.67;;;1.48;;
16189;SDS011;41754;51.498;7.540;2023-07-29T08:26:14;1.95;;;1.45;;
16189;SDS011;41754;51.498;7.540;2023-07-29T08:28:43;3.10;;;1.60;;
16189;SDS011;41754;51.498;7.540;2023-07-29T08:31:10;1.58;;;1.48;;
16189;SDS011;41754;51.498;7.540;2023-07-29T08:33:40;1.70;;;1.50;;
16189;SDS011;41754;51.498;7.540;2023-07-29T08:36:07;2.55;;;1.27;;
16189;SDS011;41754;51.498;7.540;2023-07-29T08:38:35;2.25;;;1.58;;
16189;SDS011;41754;51.498;7.540;2023-07-29T08:41:06;2.13;;;1.42;;
16189;SDS011;41754;51.498;7.540;2023-07-29T08:43:43;1.35;;;1.25;;
16189;SDS011;41754;51.498;7.540;2023-07-29T08:46:17;1.50;;;1.38;;
16189;SDS011;41754;51.498;7.540;2023-07-29T08:48:48;1.52;;;1.30;;
16189;SDS011;41754;51.498;7.540;2023-07-29T08:51:17;1.20;;;1.02;;
16189;SDS011;41754;51.498;7.540;2023-07-29T08:53:46;1.42;;;1.20;;
16189;SDS011;41754;51.498;7.540;2023-07-29T08:56:15;2.17;;;1.73;;
16189;SDS011;41754;51.498;7.540;2023-07-29T08:58:43;2.72;;;1.45;;
16189;SDS011;41754;51.498;7.540;2023-07-29T09:01:12;2.05;;;1.20;;
16189;SDS011;41754;51.498;7.540;2023-07-29T09:03:42;1.50;;;1.40;;
16189;SDS011;41754;51.498;7.540;2023-07-29T09:06:11;1.30;;;1.20;;
16189;SDS011;41754;51.498;7.540;2023-07-29T09:08:41;2.70;;;1.00;;
16189;SDS011;41754;51.498;7.540;2023-07-29T09:11:10;1.23;;;0.73;;
16189;SDS011;41754;51.498;7.540;2023-07-29T09:13:42;1.38;;;0.98;;
16189;SDS011;41754;51.498;7.540;2023-07-29T09:16:10;1.27;;;1.00;;
16189;SDS011;41754;51.498;7.540;2023-07-29T09:18:38;2.38;;;0.90;;
16189;SDS011;41754;51.498;7.540;2023-07-29T09:21:06;1.38;;;0.82;;
16189;SDS011;41754;51.498;7.540;2023-07-29T09:23:40;1.60;;;0.80;;
16189;SDS011;41754;51.498;7.540;2023-07-29T09:26:09;1.13;;;1.02;;
16189;SDS011;41754;51.498;7.540;2023-07-29T09:28:37;1.15;;;0.82;;
16189;SDS011;41754;51.498;7.540;2023-07-29T09:31:06;0.63;;;0.63;;
16189;SDS011;41754;51.498;7.540;2023-07-29T09:33:46;1.30;;;1.10;;
16189;SDS011;41754;51.498;7.540;2023-07-29T09:36:13;0.85;;;0.80;;
16189;SDS011;41754;51.498;7.540;2023-07-29T09:38:43;1.10;;;1.00;;
16189;SDS011;41754;51.498;7.540;2023-07-29T09:41:12;1.20;;;1.10;;
16189;SDS011;41754;51.498;7.540;2023-07-29T09:43:42;1.13;;;1.00;;
16189;SDS011;41754;51.498;7.540;2023-07-29T09:46:10;3.17;;;1.10;;
16189;SDS011;41754;51.498;7.540;2023-07-29T09:48:38;1.52;;;1.20;;
16189;SDS011;41754;51.498;7.540;2023-07-29T09:51:11;1.30;;;1.20;;
16189;SDS011;41754;51.498;7.540;2023-07-29T09:53:39;1.85;;;1.25;;
16189;SDS011;41754;51.498;7.540;2023-07-29T09:56:13;2.35;;;1.40;;
16189;SDS011;41754;51.498;7.540;2023-07-29T09:58:43;1.50;;;1.40;;
16189;SDS011;41754;51.498;7.540;2023-07-29T10:01:12;1.17;;;1.17;;
16189;SDS011;41754;51.498;7.540;2023-07-29T10:03:40;1.00;;;1.00;;
16189;SDS011;41754;51.498;7.540;2023-07-29T10:06:09;0.98;;;0.90;;
16189;SDS011;41754;51.498;7.540;2023-07-29T10:08:37;1.10;;;1.00;;
16189;SDS011;41754;51.498;7.540;2023-07-29T10:11:07;0.98;;;0.95;;
16189;SDS011;41754;51.498;7.540;2023-07-29T10:13:37;1.00;;;0.98;;
16189;SDS011;41754;51.498;7.540;2023-07-29T10:16:05;1.63;;;0.90;;
16189;SDS011;41754;51.498;7.540;2023-07-29T10:18:33;1.55;;;1.45;;
16189;SDS011;41754;51.498;7.540;2023-07-29T10:21:01;0.90;;;0.90;;
16189;SDS011;41754;51.498;7.540;2023-07-29T10:23:32;1.23;;;1.10;;
16189;SDS011;41754;51.498;7.540;2023-07-29T10:26:05;2.45;;;1.13;;
16189;SDS011;41754;51.498;7.540;2023-07-29T10:28:39;1.63;;;1.08;;
16189;SDS011;41754;51.498;7.540;2023-07-29T10:31:08;1.17;;;1.08;;
16189;SDS011;41754;51.498;7.540;2023-07-29T10:33:36;1.38;;;1.20;;
16189;SDS011;41754;51.498;7.540;2023-07-29T10:36:05;1.73;;;1.10;;
16189;SDS011;41754;51.498;7.540;2023-07-29T10:38:33;1.45;;;1.30;;
16189;SDS011;41754;51.498;7.540;2023-07-29T10:41:01;2.17;;;1.20;;
16189;SDS011;41754;51.498;7.540;2023-07-29T10:43:32;1.40;;;1.30;;
16189;SDS011;41754;51.498;7.540;2023-07-29T10:46:15;1.60;;;1.50;;
16189;SDS011;41754;51.498;7.540;2023-07-29T10:48:51;1.60;;;1.50;;
16189;SDS011;41754;51.498;7.540;2023-07-29T10:51:23;2.15;;;1.55;;
16189;SDS011;41754;51.498;7.540;2023-07-29T10:53:53;1.40;;;1.30;;
16189;SDS011;41754;51.498;7.540;2023-07-29T10:56:26;1.88;;;1.77;;
16189;SDS011;41754;51.498;7.540;2023-07-29T10:59:02;2.67;;;2.00;;
16189;SDS011;41754;51.498;7.540;2023-07-29T11:02:02;1.90;;;1.80;;
16189;SDS011;41754;51.498;7.540;2023-07-29T11:04:51;2.08;;;1.63;;
16189;SDS011;41754;51.498;7.540;2023-07-29T11:07:22;1.50;;;1.40;;
16189;SDS011;41754;51.498;7.540;2023-07-29T11:09:54;1.40;;;1.30;;
16189;SDS011;41754;51.498;7.540;2023-07-29T11:12:36;1.25;;;1.25;;
16189;SDS011;41754;51.498;7.540;2023-07-29T11:15:13;1.42;;;1.33;;
16189;SDS011;41754;51.498;7.540;2023-07-29T11:17:53;1.45;;;1.35;;
16189;SDS011;41754;51.498;7.540;2023-07-29T11:20:22;1.63;;;1.30;;
16189;SDS011;41754;51.498;7.540;2023-07-29T11:22:52;1.33;;;1.23;;
16189;SDS011;41754;51.498;7.540;2023-07-29T11:25:22;1.30;;;1.30;;
16189;SDS011;41754;51.498;7.540;2023-07-29T11:27:50;1.10;;;1.10;;
16189;SDS011;41754;51.498;7.540;2023-07-29T11:30:19;1.67;;;1.42;;
16189;SDS011;41754;51.498;7.540;2023-07-29T11:32:49;1.52;;;1.38;;
16189;SDS011;41754;51.498;7.540;2023-07-29T11:35:18;1.40;;;1.30;;
16189;SDS011;41754;51.498;7.540;2023-07-29T11:37:46;2.22;;;1.20;;
16189;SDS011;41754;51.498;7.540;2023-07-29T11:40:16;3.05;;;1.30;;
16189;SDS011;41754;51.498;7.540;2023-07-29T11:42:45;1.67;;;1.58;;
16189;SDS011;41754;51.498;7.540;2023-07-29T11:45:14;1.13;;;1.13;;
16189;SDS011;41754;51.498;7.540;2023-07-29T11:47:44;1.50;;;1.40;;
16189;SDS011;41754;51.498;7.540;2023-07-29T11:50:12;3.88;;;3.58;;
16189;SDS011;41754;51.498;7.540;2023-07-29T11:52:43;1.85;;;1.75;;
16189;SDS011;41754;51.498;7.540;2023-07-29T11:55:13;1.75;;;1.65;;
16189;SDS011;41754;51.498;7.540;2023-07-29T11:57:42;1.77;;;1.67;;
16189;SDS011;41754;51.498;7.540;2023-07-29T12:00:11;1.75;;;1.50;;
16189;SDS011;41754;51.498;7.540;2023-07-29T12:02:43;2.35;;;1.50;;
16189;SDS011;41754;51.498;7.540;2023-07-29T12:05:13;1.65;;;1.27;;
16189;SDS011;41754;51.498;7.540;2023-07-29T12:07:43;1.30;;;1.20;;
16189;SDS011;41754;51.498;7.540;2023-07-29T12:10:12;1.63;;;1.30;;
16189;SDS011;41754;51.498;7.540;2023-07-29T12:12:43;1.85;;;1.10;;
16189;SDS011;41754;51.498;7.540;2023-07-29T12:15:12;1.48;;;1.38;;
16189;SDS011;41754;51.498;7.540;2023-07-29T12:17:40;1.30;;;1.20;;
16189;SDS011;41754;51.498;7.540;2023-07-29T12:20:09;1.90;;;1.25;;
16189;SDS011;41754;51.498;7.540;2023-07-29T12:22:37;1.40;;;1.23;;
16189;SDS011;41754;51.498;7.540;2023-07-29T12:25:08;2.00;;;1.08;;
16189;SDS011;41754;51.498;7.540;2023-07-29T12:27:36;1.73;;;1.38;;
16189;SDS011;41754;51.498;7.540;2023-07-29T12:30:05;0.98;;;0.98;;
16189;SDS011;41754;51.498;7.540;2023-07-29T12:32:33;1.95;;;1.55;;
16189;SDS011;41754;51.498;7.540;2023-07-29T12:35:10;1.98;;;1.55;;
16189;SDS011;41754;51.498;7.540;2023-07-29T12:37:38;1.48;;;1.05;;
16189;SDS011;41754;51.498;7.540;2023-07-29T12:40:21;1.70;;;1.38;;
16189;SDS011;41754;51.498;7.540;2023-07-29T12:42:50;1.30;;;1.20;;
16189;SDS011;41754;51.498;7.540;2023-07-29T12:45:18;1.30;;;1.20;;
16189;SDS011;41754;51.498;7.540;2023-07-29T12:47:49;1.60;;;1.50;;
16189;SDS011;41754;51.498;7.540;2023-07-29T12:50:17;1.65;;;1.42;;
16189;SDS011;41754;51.498;7.540;2023-07-29T12:52:45;1.55;;;1.40;;
16189;SDS011;41754;51.498;7.540;2023-07-29T12:55:13;1.75;;;1.10;;
16189;SDS011;41754;51.498;7.540;2023-07-29T12:57:42;1.40;;;1.30;;
16189;SDS011;41754;51.498;7.540;2023-07-29T13:00:11;1.65;;;1.50;;
16189;SDS011;41754;51.498;7.540;2023-07-29T13:02:39;1.45;;;1.35;;
16189;SDS011;41754;51.498;7.540;2023-07-29T13:05:08;1.38;;;1.27;;
16189;SDS011;41754;51.498;7.540;2023-07-29T13:07:37;2.42;;;1.20;;
16189;SDS011;41754;51.498;7.540;2023-07-29T13:10:06;2.67;;;1.45;;
16189;SDS011;41754;51.498;7.540;2023-07-29T13:12:34;1.30;;;1.20;;
16189;SDS011;41754;51.498;7.540;2023-07-29T13:15:04;1.20;;;1.10;;
16189;SDS011;41754;51.498;7.540;2023-07-29T13:17:32;1.38;;;1.27;;
16189;SDS011;41754;51.498;7.540;2023-07-29T13:20:01;1.40;;;1.30;;
16189;SDS011;41754;51.498;7.540;2023-07-29T13:22:30;1.63;;;1.45;;
16189;SDS011;41754;51.498;7.540;2023-07-29T13:24:57;2.17;;;1.35;;
16189;SDS011;41754;51.498;7.540;2023-07-29T13:27:25;1.67;;;1.50;;
16189;SDS011;41754;51.498;7.540;2023-07-29T13:29:53;1.35;;;1.25;;
16189;SDS011;41754;51.498;7.540;2023-07-29T13:32:22;3.92;;;1.40;;
16189;SDS011;41754;51.498;7.540;2023-07-29T13:34:50;1.60;;;1.50;;
16189;SDS011;41754;51.498;7.540;2023-07-29T13:37:18;1.33;;;1.23;;
16189;SDS011;41754;51.498;7.540;2023-07-29T13:39:46;2.53;;;1.80;;
16189;SDS011;41754;51.498;7.540;2023-07-29T13:42:13;1.63;;;1.52;;
16189;SDS011;41754;51.498;7.540;2023-07-29T13:44:41;1.40;;;1.30;;
16189;SDS011;41754;51.498;7.540;2023-07-29T13:47:09;1.98;;;1.40;;
16189;SDS011;41754;51.498;7.540;2023-07-29T13:49:38;1.42;;;1.33;;
16189;SDS011;41754;51.498;7.540;2023-07-29T13:52:06;1.63;;;1.40;;
16189;SDS011;41754;51.498;7.540;2023-07-29T13:54:35;2.88;;;1.98;;
16189;SDS011;41754;51.498;7.540;2023-07-29T13:57:03;1.50;;;1.30;;
16189;SDS011;41754;51.498;7.540;2023-07-29T13:59:31;1.90;;;1.80;;
16189;SDS011;41754;51.498;7.540;2023-07-29T14:01:58;1.70;;;1.60;;
16189;SDS011;41754;51.498;7.540;2023-07-29T14:04:26;1.60;;;1.50;;
16189;SDS011;41754;51.498;7.540;2023-07-29T14:06:57;1.50;;;1.40;;
16189;SDS011;41754;51.498;7.540;2023-07-29T14:09:25;2.75;;;1.90;;
16189;SDS011;41754;51.498;7.540;2023-07-29T14:11:54;2.47;;;2.03;;
16189;SDS011;41754;51.498;7.540;2023-07-29T14:14:22;1.83;;;1.73;;
16189;SDS011;41754;51.498;7.540;2023-07-29T14:16:49;1.73;;;1.63;;
16189;SDS011;41754;51.498;7.540;2023-07-29T14:19:17;4.32;;;1.98;;
16189;SDS011;41754;51.498;7.540;2023-07-29T14:21:45;2.28;;;2.00;;
16189;SDS011;41754;51.498;7.540;2023-07-29T14:24:14;1.80;;;1.70;;
16189;SDS011;41754;51.498;7.540;2023-07-29T14:26:42;1.75;;;1.58;;
16189;SDS011;41754;51.498;7.540;2023-07-29T14:29:10;1.77;;;1.67;;
16189;SDS011;41754;51.498;7.540;2023-07-29T14:31:38;2.05;;;1.60;;
16189;SDS011;41754;51.498;7.540;2023-07-29T14:34:06;2.00;;;1.80;;
16189;SDS011;41754;51.498;7.540;2023-07-29T14:36:34;3.55;;;1.80;;
16189;SDS011;41754;51.498;7.540;2023-07-29T14:39:02;1.70;;;1.60;;
16189;SDS011;41754;51.498;7.540;2023-07-29T14:41:31;2.67;;;2.00;;
16189;SDS011;41754;51.498;7.540;2023-07-29T14:43:59;2.80;;;1.98;;
16189;SDS011;41754;51.498;7.540;2023-07-29T14:46:27;2.03;;;1.83;;
16189;SDS011;41754;51.498;7.540;2023-07-29T14:48:55;2.15;;;1.95;;
16189;SDS011;41754;51.498;7.540;2023-07-29T14:51:30;2.50;;;2.30;;
16189;SDS011;41754;51.498;7.540;2023-07-29T14:54:07;1.95;;;1.85;;
16189;SDS011;41754;51.498;7.540;2023-07-29T14:56:36;2.55;;;2.20;;